sensor_id;sensor_type;location;lat;lon;timestamp;P1;durP1;ratioP1;P2;durP2;ratioP2
41635;SDS011;27623;51.966;4.602;2022-10-10T00:01:30;6.75;;;3.72;;
41635;SDS011;27623;51.966;4.602;2022-10-10T00:03:57;7.25;;;3.80;;
41635;SDS011;27623;51.966;4.602;2022-10-10T00:06:23;6.65;;;3.80;;
41635;SDS011;27623;51.966;4.602;2022-10-10T00:08:49;8.93;;;4.57;;
41635;SDS011;27623;51.966;4.602;2022-10-10T00:11:16;7.80;;;4.18;;
41635;SDS011;27623;51.966;4.602;2022-10-10T00:13:42;7.00;;;4.22;;
41635;SDS011;27623;51.966;4.602;2022-10-10T00:16:08;7.60;;;4.25;;
41635;SDS011;27623;51.966;4.602;2022-10-10T00:18:34;6.57;;;4.85;;
41635;SDS011;27623;51.966;4.602;2022-10-10T00:21:00;8.45;;;4.05;;
41635;SDS011;27623;51.966;4.602;2022-10-10T00:23:28;9.25;;;4.53;;
41635;SDS011;27623;51.966;4.602;2022-10-10T00:25:54;9.88;;;4.28;;
41635;SDS011;27623;51.966;4.602;2022-10-10T00:28:19;6.85;;;4.15;;
41635;SDS011;27623;51.966;4.602;2022-10-10T00:30:45;7.22;;;4.13;;
41635;SDS011;27623;51.966;4.602;2022-10-10T00:33:11;8.55;;;4.55;;
41635;SDS011;27623;51.966;4.602;2022-10-10T00:35:37;9.02;;;4.82;;
41635;SDS011;27623;51.966;4.602;2022-10-10T00:38:03;7.65;;;4.22;;
41635;SDS011;27623;51.966;4.602;2022-10-10T00:40:31;8.15;;;3.90;;
41635;SDS011;27623;51.966;4.602;2022-10-10T00:42:57;8.80;;;4.10;;
41635;SDS011;27623;51.966;4.602;2022-10-10T00:45:37;8.40;;;4.07;;
41635;SDS011;27623;51.966;4.602;2022-10-10T00:53:18;6.68;;;4.03;;
41635;SDS011;27623;51.966;4.602;2022-10-10T00:55:47;6.55;;;4.25;;
41635;SDS011;27623;51.966;4.602;2022-10-10T00:58:13;8.00;;;4.38;;
41635;SDS011;27623;51.966;4.602;2022-10-10T01:00:41;5.43;;;4.03;;
41635;SDS011;27623;51.966;4.602;2022-10-10T01:03:06;7.32;;;4.03;;
41635;SDS011;27623;51.966;4.602;2022-10-10T01:05:32;8.25;;;4.57;;
41635;SDS011;27623;51.966;4.602;2022-10-10T01:07:58;8.23;;;4.40;;
41635;SDS011;27623;51.966;4.602;2022-10-10T01:10:25;7.15;;;4.53;;
41635;SDS011;27623;51.966;4.602;2022-10-10T01:15:24;6.90;;;4.47;;
41635;SDS011;27623;51.966;4.602;2022-10-10T01:18:02;8.88;;;3.95;;
41635;SDS011;27623;51.966;4.602;2022-10-10T01:26:33;7.68;;;4.78;;
41635;SDS011;27623;51.966;4.602;2022-10-10T01:29:17;9.15;;;4.75;;
41635;SDS011;27623;51.966;4.602;2022-10-10T01:31:49;6.43;;;4.00;;
41635;SDS011;27623;51.966;4.602;2022-10-10T01:34:36;10.38;;;4.18;;
41635;SDS011;27623;51.966;4.602;2022-10-10T01:37:16;9.00;;;3.95;;
41635;SDS011;27623;51.966;4.602;2022-10-10T01:39:57;7.95;;;3.75;;
41635;SDS011;27623;51.966;4.602;2022-10-10T01:42:49;8.75;;;4.43;;
41635;SDS011;27623;51.966;4.602;2022-10-10T01:45:18;10.80;;;4.70;;
41635;SDS011;27623;51.966;4.602;2022-10-10T01:47:44;8.02;;;3.70;;
41635;SDS011;27623;51.966;4.602;2022-10-10T01:50:11;7.30;;;4.30;;
41635;SDS011;27623;51.966;4.602;2022-10-10T02:00:28;8.98;;;4.28;;
41635;SDS011;27623;51.966;4.602;2022-10-10T02:10:55;9.85;;;4.05;;
41635;SDS011;27623;51.966;4.602;2022-10-10T02:13:28;8.77;;;4.43;;
41635;SDS011;27623;51.966;4.602;2022-10-10T02:16:00;6.30;;;3.80;;
41635;SDS011;27623;51.966;4.602;2022-10-10T02:18:30;9.25;;;4.35;;
41635;SDS011;27623;51.966;4.602;2022-10-10T02:20:58;8.20;;;4.25;;
41635;SDS011;27623;51.966;4.602;2022-10-10T02:23:27;7.45;;;4.78;;
41635;SDS011;27623;51.966;4.602;2022-10-10T02:25:54;12.25;;;4.95;;
41635;SDS011;27623;51.966;4.602;2022-10-10T02:28:40;7.10;;;4.00;;
41635;SDS011;27623;51.966;4.602;2022-10-10T02:31:09;6.03;;;4.13;;
41635;SDS011;27623;51.966;4.602;2022-10-10T02:33:52;7.00;;;4.38;;
41635;SDS011;27623;51.966;4.602;2022-10-10T02:36:21;13.90;;;4.78;;
41635;SDS011;27623;51.966;4.602;2022-10-10T02:38:48;8.32;;;4.05;;
41635;SDS011;27623;51.966;4.602;2022-10-10T02:41:16;8.32;;;4.43;;
41635;SDS011;27623;51.966;4.602;2022-10-10T02:43:43;7.65;;;4.32;;
41635;SDS011;27623;51.966;4.602;2022-10-10T02:46:10;11.23;;;4.63;;
41635;SDS011;27623;51.966;4.602;2022-10-10T02:48:37;8.23;;;4.30;;
41635;SDS011;27623;51.966;4.602;2022-10-10T02:51:03;10.75;;;4.60;;
41635;SDS011;27623;51.966;4.602;2022-10-10T02:53:29;8.80;;;4.05;;
41635;SDS011;27623;51.966;4.602;2022-10-10T02:55:54;10.73;;;4.22;;
41635;SDS011;27623;51.966;4.602;2022-10-10T02:58:20;8.80;;;4.25;;
41635;SDS011;27623;51.966;4.602;2022-10-10T03:00:45;7.22;;;3.67;;
41635;SDS011;27623;51.966;4.602;2022-10-10T03:03:13;7.47;;;4.20;;
41635;SDS011;27623;51.966;4.602;2022-10-10T03:05:39;8.60;;;3.92;;
41635;SDS011;27623;51.966;4.602;2022-10-10T03:08:04;10.85;;;4.00;;
41635;SDS011;27623;51.966;4.602;2022-10-10T03:10:30;10.77;;;4.85;;
41635;SDS011;27623;51.966;4.602;2022-10-10T03:12:55;11.30;;;4.38;;
41635;SDS011;27623;51.966;4.602;2022-10-10T03:15:21;8.23;;;4.30;;
41635;SDS011;27623;51.966;4.602;2022-10-10T03:17:46;8.02;;;4.75;;
41635;SDS011;27623;51.966;4.602;2022-10-10T03:20:15;7.32;;;4.28;;
41635;SDS011;27623;51.966;4.602;2022-10-10T03:22:41;10.13;;;4.22;;
41635;SDS011;27623;51.966;4.602;2022-10-10T03:25:06;11.45;;;5.43;;
41635;SDS011;27623;51.966;4.602;2022-10-10T03:27:32;10.93;;;3.95;;
41635;SDS011;27623;51.966;4.602;2022-10-10T03:29:57;9.45;;;4.28;;
41635;SDS011;27623;51.966;4.602;2022-10-10T03:32:24;9.95;;;4.53;;
41635;SDS011;27623;51.966;4.602;2022-10-10T03:34:49;10.73;;;4.80;;
41635;SDS011;27623;51.966;4.602;2022-10-10T03:37:14;9.10;;;3.97;;
41635;SDS011;27623;51.966;4.602;2022-10-10T03:39:49;8.57;;;4.82;;
41635;SDS011;27623;51.966;4.602;2022-10-10T03:42:14;9.00;;;4.18;;
41635;SDS011;27623;51.966;4.602;2022-10-10T03:44:40;7.43;;;4.57;;
41635;SDS011;27623;51.966;4.602;2022-10-10T03:47:06;7.53;;;4.55;;
41635;SDS011;27623;51.966;4.602;2022-10-10T03:49:31;11.73;;;4.80;;
41635;SDS011;27623;51.966;4.602;2022-10-10T03:51:57;12.20;;;4.85;;
41635;SDS011;27623;51.966;4.602;2022-10-10T03:54:24;9.43;;;5.00;;
41635;SDS011;27623;51.966;4.602;2022-10-10T03:56:51;9.18;;;4.75;;
41635;SDS011;27623;51.966;4.602;2022-10-10T03:59:16;7.93;;;4.80;;
41635;SDS011;27623;51.966;4.602;2022-10-10T04:01:42;9.38;;;4.57;;
41635;SDS011;27623;51.966;4.602;2022-10-10T04:04:08;9.48;;;4.90;;
41635;SDS011;27623;51.966;4.602;2022-10-10T04:06:33;11.68;;;5.35;;
41635;SDS011;27623;51.966;4.602;2022-10-10T04:09:00;11.75;;;4.75;;
41635;SDS011;27623;51.966;4.602;2022-10-10T04:11:25;9.07;;;4.57;;
41635;SDS011;27623;51.966;4.602;2022-10-10T04:13:50;11.02;;;5.53;;
41635;SDS011;27623;51.966;4.602;2022-10-10T04:16:16;12.15;;;5.25;;
41635;SDS011;27623;51.966;4.602;2022-10-10T04:18:42;8.80;;;5.10;;
41635;SDS011;27623;51.966;4.602;2022-10-10T04:21:08;9.82;;;5.10;;
41635;SDS011;27623;51.966;4.602;2022-10-10T04:23:34;11.88;;;5.15;;
41635;SDS011;27623;51.966;4.602;2022-10-10T04:26:00;11.65;;;5.10;;
41635;SDS011;27623;51.966;4.602;2022-10-10T04:28:25;13.02;;;5.03;;
41635;SDS011;27623;51.966;4.602;2022-10-10T04:30:51;12.48;;;4.88;;
41635;SDS011;27623;51.966;4.602;2022-10-10T04:33:17;12.65;;;5.40;;
41635;SDS011;27623;51.966;4.602;2022-10-10T04:35:42;10.70;;;5.05;;
41635;SDS011;27623;51.966;4.602;2022-10-10T04:38:10;9.13;;;4.95;;
41635;SDS011;27623;51.966;4.602;2022-10-10T04:40:35;10.23;;;4.47;;
41635;SDS011;27623;51.966;4.602;2022-10-10T04:43:02;7.63;;;4.40;;
41635;SDS011;27623;51.966;4.602;2022-10-10T04:45:27;8.60;;;4.90;;
41635;SDS011;27623;51.966;4.602;2022-10-10T04:47:53;12.45;;;4.18;;
41635;SDS011;27623;51.966;4.602;2022-10-10T04:50:19;8.48;;;4.35;;
41635;SDS011;27623;51.966;4.602;2022-10-10T04:52:44;10.30;;;4.97;;
41635;SDS011;27623;51.966;4.602;2022-10-10T04:55:10;11.40;;;4.72;;
41635;SDS011;27623;51.966;4.602;2022-10-10T04:57:35;9.77;;;4.80;;
41635;SDS011;27623;51.966;4.602;2022-10-10T05:00:01;10.75;;;4.93;;
41635;SDS011;27623;51.966;4.602;2022-10-10T05:02:27;14.90;;;5.70;;
41635;SDS011;27623;51.966;4.602;2022-10-10T05:04:53;10.52;;;5.38;;
41635;SDS011;27623;51.966;4.602;2022-10-10T05:07:18;9.82;;;4.95;;
41635;SDS011;27623;51.966;4.602;2022-10-10T05:09:43;10.55;;;4.72;;
41635;SDS011;27623;51.966;4.602;2022-10-10T05:12:09;12.35;;;4.80;;
41635;SDS011;27623;51.966;4.602;2022-10-10T05:14:35;8.18;;;4.57;;
41635;SDS011;27623;51.966;4.602;2022-10-10T05:17:00;9.98;;;4.88;;
41635;SDS011;27623;51.966;4.602;2022-10-10T05:19:28;12.80;;;4.93;;
41635;SDS011;27623;51.966;4.602;2022-10-10T05:21:54;8.35;;;5.00;;
41635;SDS011;27623;51.966;4.602;2022-10-10T05:24:19;8.82;;;5.15;;
41635;SDS011;27623;51.966;4.602;2022-10-10T05:26:45;9.20;;;4.20;;
41635;SDS011;27623;51.966;4.602;2022-10-10T05:29:10;8.50;;;5.32;;
41635;SDS011;27623;51.966;4.602;2022-10-10T05:31:38;14.35;;;5.18;;
41635;SDS011;27623;51.966;4.602;2022-10-10T05:34:04;12.68;;;5.50;;
41635;SDS011;27623;51.966;4.602;2022-10-10T05:36:29;9.00;;;4.68;;
41635;SDS011;27623;51.966;4.602;2022-10-10T05:38:54;10.45;;;5.25;;
41635;SDS011;27623;51.966;4.602;2022-10-10T05:41:20;12.95;;;5.93;;
41635;SDS011;27623;51.966;4.602;2022-10-10T05:43:46;16.17;;;5.93;;
41635;SDS011;27623;51.966;4.602;2022-10-10T05:46:11;8.30;;;4.90;;
41635;SDS011;27623;51.966;4.602;2022-10-10T05:48:37;10.73;;;5.13;;
41635;SDS011;27623;51.966;4.602;2022-10-10T05:51:02;8.65;;;4.93;;
41635;SDS011;27623;51.966;4.602;2022-10-10T05:53:30;10.85;;;4.97;;
41635;SDS011;27623;51.966;4.602;2022-10-10T05:55:56;8.13;;;4.70;;
41635;SDS011;27623;51.966;4.602;2022-10-10T05:58:21;11.23;;;5.10;;
41635;SDS011;27623;51.966;4.602;2022-10-10T06:00:47;7.93;;;4.38;;
41635;SDS011;27623;51.966;4.602;2022-10-10T06:03:13;10.70;;;5.68;;
41635;SDS011;27623;51.966;4.602;2022-10-10T06:05:41;13.07;;;5.32;;
41635;SDS011;27623;51.966;4.602;2022-10-10T06:08:12;14.32;;;5.90;;
41635;SDS011;27623;51.966;4.602;2022-10-10T06:10:39;11.82;;;5.40;;
41635;SDS011;27623;51.966;4.602;2022-10-10T06:13:06;12.32;;;5.60;;
41635;SDS011;27623;51.966;4.602;2022-10-10T06:15:34;10.05;;;5.40;;
41635;SDS011;27623;51.966;4.602;2022-10-10T06:18:00;14.05;;;6.18;;
41635;SDS011;27623;51.966;4.602;2022-10-10T06:20:25;11.35;;;5.88;;
41635;SDS011;27623;51.966;4.602;2022-10-10T06:22:51;11.60;;;5.38;;
41635;SDS011;27623;51.966;4.602;2022-10-10T06:25:17;12.10;;;6.10;;
41635;SDS011;27623;51.966;4.602;2022-10-10T06:27:43;12.75;;;5.65;;
41635;SDS011;27623;51.966;4.602;2022-10-10T06:30:08;17.20;;;6.00;;
41635;SDS011;27623;51.966;4.602;2022-10-10T06:32:35;11.55;;;5.13;;
41635;SDS011;27623;51.966;4.602;2022-10-10T06:35:01;12.70;;;5.65;;
41635;SDS011;27623;51.966;4.602;2022-10-10T06:37:26;13.73;;;5.88;;
41635;SDS011;27623;51.966;4.602;2022-10-10T06:39:52;13.55;;;6.28;;
41635;SDS011;27623;51.966;4.602;2022-10-10T06:42:17;12.10;;;5.57;;
41635;SDS011;27623;51.966;4.602;2022-10-10T06:44:43;10.27;;;5.50;;
41635;SDS011;27623;51.966;4.602;2022-10-10T06:47:08;12.85;;;6.00;;
41635;SDS011;27623;51.966;4.602;2022-10-10T06:49:36;13.25;;;5.40;;
41635;SDS011;27623;51.966;4.602;2022-10-10T06:52:02;13.90;;;6.10;;
41635;SDS011;27623;51.966;4.602;2022-10-10T06:54:27;12.15;;;5.53;;
41635;SDS011;27623;51.966;4.602;2022-10-10T06:56:55;7.60;;;5.13;;
41635;SDS011;27623;51.966;4.602;2022-10-10T06:59:20;13.15;;;6.50;;
41635;SDS011;27623;51.966;4.602;2022-10-10T07:01:46;14.18;;;5.93;;
41635;SDS011;27623;51.966;4.602;2022-10-10T07:04:12;12.90;;;5.65;;
41635;SDS011;27623;51.966;4.602;2022-10-10T07:06:37;10.88;;;5.75;;
41635;SDS011;27623;51.966;4.602;2022-10-10T07:09:03;16.05;;;6.20;;
41635;SDS011;27623;51.966;4.602;2022-10-10T07:11:28;15.98;;;6.28;;
41635;SDS011;27623;51.966;4.602;2022-10-10T07:13:54;11.18;;;6.07;;
41635;SDS011;27623;51.966;4.602;2022-10-10T07:16:19;11.63;;;5.63;;
41635;SDS011;27623;51.966;4.602;2022-10-10T07:18:45;17.08;;;6.30;;
41635;SDS011;27623;51.966;4.602;2022-10-10T07:21:10;13.20;;;5.72;;
41635;SDS011;27623;51.966;4.602;2022-10-10T07:23:36;11.98;;;5.70;;
41635;SDS011;27623;51.966;4.602;2022-10-10T07:26:03;13.90;;;6.93;;
41635;SDS011;27623;51.966;4.602;2022-10-10T07:28:32;17.33;;;6.95;;
41635;SDS011;27623;51.966;4.602;2022-10-10T07:30:59;11.32;;;5.50;;
41635;SDS011;27623;51.966;4.602;2022-10-10T07:33:29;10.88;;;5.68;;
41635;SDS011;27623;51.966;4.602;2022-10-10T07:35:56;10.23;;;6.18;;
41635;SDS011;27623;51.966;4.602;2022-10-10T07:38:21;10.52;;;5.70;;
41635;SDS011;27623;51.966;4.602;2022-10-10T07:40:47;14.88;;;6.13;;
41635;SDS011;27623;51.966;4.602;2022-10-10T07:43:12;9.20;;;5.35;;
41635;SDS011;27623;51.966;4.602;2022-10-10T07:45:38;12.38;;;5.47;;
41635;SDS011;27623;51.966;4.602;2022-10-10T07:48:03;10.10;;;5.63;;
41635;SDS011;27623;51.966;4.602;2022-10-10T07:50:29;14.48;;;6.20;;
41635;SDS011;27623;51.966;4.602;2022-10-10T07:52:54;16.00;;;6.00;;
41635;SDS011;27623;51.966;4.602;2022-10-10T07:55:20;10.18;;;5.40;;
41635;SDS011;27623;51.966;4.602;2022-10-10T07:57:46;11.63;;;7.43;;
41635;SDS011;27623;51.966;4.602;2022-10-10T08:00:12;13.38;;;5.85;;
41635;SDS011;27623;51.966;4.602;2022-10-10T08:02:38;14.88;;;5.95;;
41635;SDS011;27623;51.966;4.602;2022-10-10T08:05:03;10.60;;;6.00;;
41635;SDS011;27623;51.966;4.602;2022-10-10T08:07:29;11.73;;;6.15;;
41635;SDS011;27623;51.966;4.602;2022-10-10T08:09:54;9.75;;;5.47;;
41635;SDS011;27623;51.966;4.602;2022-10-10T08:12:20;13.70;;;5.38;;
41635;SDS011;27623;51.966;4.602;2022-10-10T08:14:45;12.23;;;5.57;;
41635;SDS011;27623;51.966;4.602;2022-10-10T08:17:11;15.13;;;5.75;;
41635;SDS011;27623;51.966;4.602;2022-10-10T08:19:36;18.83;;;6.00;;
41635;SDS011;27623;51.966;4.602;2022-10-10T08:22:02;12.57;;;5.80;;
41635;SDS011;27623;51.966;4.602;2022-10-10T08:24:27;11.38;;;6.07;;
41635;SDS011;27623;51.966;4.602;2022-10-10T08:26:53;11.43;;;6.10;;
41635;SDS011;27623;51.966;4.602;2022-10-10T08:29:18;13.27;;;6.07;;
41635;SDS011;27623;51.966;4.602;2022-10-10T08:31:44;10.02;;;6.03;;
41635;SDS011;27623;51.966;4.602;2022-10-10T08:34:12;9.70;;;5.25;;
41635;SDS011;27623;51.966;4.602;2022-10-10T08:36:37;11.35;;;5.47;;
41635;SDS011;27623;51.966;4.602;2022-10-10T08:39:03;13.13;;;5.55;;
41635;SDS011;27623;51.966;4.602;2022-10-10T08:44:47;16.02;;;5.78;;
41635;SDS011;27623;51.966;4.602;2022-10-10T08:49:28;11.75;;;5.45;;
41635;SDS011;27623;51.966;4.602;2022-10-10T08:52:01;10.48;;;5.38;;
41635;SDS011;27623;51.966;4.602;2022-10-10T08:54:31;10.50;;;5.90;;
41635;SDS011;27623;51.966;4.602;2022-10-10T08:57:01;13.23;;;5.68;;
41635;SDS011;27623;51.966;4.602;2022-10-10T08:59:33;10.25;;;5.32;;
41635;SDS011;27623;51.966;4.602;2022-10-10T09:02:47;12.73;;;5.57;;
41635;SDS011;27623;51.966;4.602;2022-10-10T09:04:56;13.32;;;5.53;;
41635;SDS011;27623;51.966;4.602;2022-10-10T09:07:28;14.15;;;6.18;;
41635;SDS011;27623;51.966;4.602;2022-10-10T09:10:15;11.30;;;5.15;;
41635;SDS011;27623;51.966;4.602;2022-10-10T09:15:44;14.43;;;5.75;;
41635;SDS011;27623;51.966;4.602;2022-10-10T09:18:21;12.60;;;5.45;;
41635;SDS011;27623;51.966;4.602;2022-10-10T09:23:43;16.30;;;6.63;;
41635;SDS011;27623;51.966;4.602;2022-10-10T09:26:19;13.20;;;5.35;;
41635;SDS011;27623;51.966;4.602;2022-10-10T09:28:51;11.93;;;6.03;;
41635;SDS011;27623;51.966;4.602;2022-10-10T09:31:27;13.38;;;6.10;;
41635;SDS011;27623;51.966;4.602;2022-10-10T09:37:01;14.25;;;5.72;;
41635;SDS011;27623;51.966;4.602;2022-10-10T09:39:44;16.40;;;5.75;;
41635;SDS011;27623;51.966;4.602;2022-10-10T09:42:24;10.07;;;4.97;;
41635;SDS011;27623;51.966;4.602;2022-10-10T09:44:57;14.55;;;5.10;;
41635;SDS011;27623;51.966;4.602;2022-10-10T09:47:23;10.50;;;5.28;;
41635;SDS011;27623;51.966;4.602;2022-10-10T09:49:48;10.30;;;5.50;;
41635;SDS011;27623;51.966;4.602;2022-10-10T09:52:27;16.75;;;6.00;;
41635;SDS011;27623;51.966;4.602;2022-10-10T09:54:59;14.13;;;5.60;;
41635;SDS011;27623;51.966;4.602;2022-10-10T09:57:34;11.10;;;4.97;;
41635;SDS011;27623;51.966;4.602;2022-10-10T10:00:36;15.82;;;5.20;;
41635;SDS011;27623;51.966;4.602;2022-10-10T10:03:16;15.68;;;5.25;;
41635;SDS011;27623;51.966;4.602;2022-10-10T10:05:44;13.30;;;4.97;;
41635;SDS011;27623;51.966;4.602;2022-10-10T10:08:19;10.35;;;4.57;;
41635;SDS011;27623;51.966;4.602;2022-10-10T10:10:50;12.77;;;5.05;;
41635;SDS011;27623;51.966;4.602;2022-10-10T10:13:18;8.68;;;4.55;;
41635;SDS011;27623;51.966;4.602;2022-10-10T10:15:49;10.07;;;4.47;;
41635;SDS011;27623;51.966;4.602;2022-10-10T10:18:23;11.80;;;4.93;;
41635;SDS011;27623;51.966;4.602;2022-10-10T10:21:08;11.38;;;4.90;;
41635;SDS011;27623;51.966;4.602;2022-10-10T10:29:25;16.70;;;4.93;;
41635;SDS011;27623;51.966;4.602;2022-10-10T10:37:42;13.65;;;4.90;;
41635;SDS011;27623;51.966;4.602;2022-10-10T10:40:30;12.88;;;4.38;;
41635;SDS011;27623;51.966;4.602;2022-10-10T10:43:19;14.38;;;4.75;;
41635;SDS011;27623;51.966;4.602;2022-10-10T10:45:59;12.30;;;4.30;;
41635;SDS011;27623;51.966;4.602;2022-10-10T10:48:28;13.57;;;4.95;;
41635;SDS011;27623;51.966;4.602;2022-10-10T10:53:39;24.55;;;5.20;;
41635;SDS011;27623;51.966;4.602;2022-10-10T10:59:23;12.95;;;5.25;;
41635;SDS011;27623;51.966;4.602;2022-10-10T11:01:48;10.82;;;4.50;;
41635;SDS011;27623;51.966;4.602;2022-10-10T11:04:44;15.57;;;5.35;;
41635;SDS011;27623;51.966;4.602;2022-10-10T11:12:29;11.15;;;4.90;;
41635;SDS011;27623;51.966;4.602;2022-10-10T11:20:44;11.52;;;4.90;;
41635;SDS011;27623;51.966;4.602;2022-10-10T11:23:16;12.35;;;5.68;;
41635;SDS011;27623;51.966;4.602;2022-10-10T11:30:53;8.90;;;4.57;;
41635;SDS011;27623;51.966;4.602;2022-10-10T11:33:26;11.75;;;4.60;;
41635;SDS011;27623;51.966;4.602;2022-10-10T11:36:05;11.30;;;4.55;;
41635;SDS011;27623;51.966;4.602;2022-10-10T11:41:12;16.42;;;4.82;;
41635;SDS011;27623;51.966;4.602;2022-10-10T11:43:59;9.13;;;3.90;;
41635;SDS011;27623;51.966;4.602;2022-10-10T11:49:12;12.95;;;4.90;;
41635;SDS011;27623;51.966;4.602;2022-10-10T11:54:36;11.60;;;4.57;;
41635;SDS011;27623;51.966;4.602;2022-10-10T11:57:13;20.38;;;5.03;;
41635;SDS011;27623;51.966;4.602;2022-10-10T11:59:48;10.80;;;3.55;;
41635;SDS011;27623;51.966;4.602;2022-10-10T12:02:19;10.38;;;4.20;;
41635;SDS011;27623;51.966;4.602;2022-10-10T12:04:49;9.38;;;3.67;;
41635;SDS011;27623;51.966;4.602;2022-10-10T12:07:19;13.75;;;3.97;;
41635;SDS011;27623;51.966;4.602;2022-10-10T12:09:55;8.70;;;3.22;;
41635;SDS011;27623;51.966;4.602;2022-10-10T12:12:28;6.13;;;2.60;;
41635;SDS011;27623;51.966;4.602;2022-10-10T12:14:57;5.10;;;2.08;;
41635;SDS011;27623;51.966;4.602;2022-10-10T12:19:56;14.45;;;2.85;;
41635;SDS011;27623;51.966;4.602;2022-10-10T12:25:43;6.10;;;1.75;;
41635;SDS011;27623;51.966;4.602;2022-10-10T12:46:39;2.72;;;0.98;;
41635;SDS011;27623;51.966;4.602;2022-10-10T12:49:15;2.13;;;0.60;;
41635;SDS011;27623;51.966;4.602;2022-10-10T12:54:40;5.60;;;1.90;;
41635;SDS011;27623;51.966;4.602;2022-10-10T12:57:21;13.32;;;4.15;;
41635;SDS011;27623;51.966;4.602;2022-10-10T12:59:50;5.68;;;1.90;;
41635;SDS011;27623;51.966;4.602;2022-10-10T13:02:25;1.65;;;0.50;;
41635;SDS011;27623;51.966;4.602;2022-10-10T13:04:52;4.72;;;0.60;;
41635;SDS011;27623;51.966;4.602;2022-10-10T13:07:21;1.33;;;0.40;;
41635;SDS011;27623;51.966;4.602;2022-10-10T13:09:49;0.80;;;0.30;;
41635;SDS011;27623;51.966;4.602;2022-10-10T13:12:34;2.75;;;0.77;;
41635;SDS011;27623;51.966;4.602;2022-10-10T13:14:59;3.60;;;0.50;;
41635;SDS011;27623;51.966;4.602;2022-10-10T13:17:29;0.55;;;0.30;;
41635;SDS011;27623;51.966;4.602;2022-10-10T13:20:05;4.30;;;0.32;;
41635;SDS011;27623;51.966;4.602;2022-10-10T13:22:33;3.45;;;0.30;;
41635;SDS011;27623;51.966;4.602;2022-10-10T13:25:00;4.10;;;0.60;;
41635;SDS011;27623;51.966;4.602;2022-10-10T13:27:30;4.35;;;0.47;;
41635;SDS011;27623;51.966;4.602;2022-10-10T13:29:59;5.22;;;0.50;;
41635;SDS011;27623;51.966;4.602;2022-10-10T13:32:26;5.93;;;0.60;;
41635;SDS011;27623;51.966;4.602;2022-10-10T13:34:58;4.40;;;0.50;;
41635;SDS011;27623;51.966;4.602;2022-10-10T13:37:28;3.95;;;0.85;;
41635;SDS011;27623;51.966;4.602;2022-10-10T13:39:54;2.20;;;0.47;;
41635;SDS011;27623;51.966;4.602;2022-10-10T13:45:01;3.50;;;1.40;;
41635;SDS011;27623;51.966;4.602;2022-10-10T13:50:24;9.20;;;1.27;;
41635;SDS011;27623;51.966;4.602;2022-10-10T13:55:47;10.20;;;1.10;;
41635;SDS011;27623;51.966;4.602;2022-10-10T13:58:12;8.55;;;1.15;;
41635;SDS011;27623;51.966;4.602;2022-10-10T14:00:38;7.20;;;1.23;;
41635;SDS011;27623;51.966;4.602;2022-10-10T14:03:13;9.60;;;1.55;;
41635;SDS011;27623;51.966;4.602;2022-10-10T14:05:43;11.35;;;1.20;;
41635;SDS011;27623;51.966;4.602;2022-10-10T14:08:20;9.93;;;1.17;;
41635;SDS011;27623;51.966;4.602;2022-10-10T14:11:01;11.65;;;1.92;;
41635;SDS011;27623;51.966;4.602;2022-10-10T14:13:31;9.05;;;1.17;;
41635;SDS011;27623;51.966;4.602;2022-10-10T14:18:44;9.38;;;1.23;;
41635;SDS011;27623;51.966;4.602;2022-10-10T14:21:11;8.30;;;1.30;;
41635;SDS011;27623;51.966;4.602;2022-10-10T14:23:37;8.88;;;1.60;;
41635;SDS011;27623;51.966;4.602;2022-10-10T14:26:04;14.82;;;3.05;;
41635;SDS011;27623;51.966;4.602;2022-10-10T14:28:32;12.85;;;1.38;;
41635;SDS011;27623;51.966;4.602;2022-10-10T14:30:59;10.68;;;1.85;;
41635;SDS011;27623;51.966;4.602;2022-10-10T14:33:24;11.60;;;3.05;;
41635;SDS011;27623;51.966;4.602;2022-10-10T14:35:51;13.27;;;2.13;;
41635;SDS011;27623;51.966;4.602;2022-10-10T14:38:20;8.73;;;1.30;;
41635;SDS011;27623;51.966;4.602;2022-10-10T14:40:46;10.02;;;2.55;;
41635;SDS011;27623;51.966;4.602;2022-10-10T14:43:13;14.98;;;2.10;;
41635;SDS011;27623;51.966;4.602;2022-10-10T14:45:40;15.20;;;1.50;;
41635;SDS011;27623;51.966;4.602;2022-10-10T14:48:06;12.80;;;2.38;;
41635;SDS011;27623;51.966;4.602;2022-10-10T14:50:35;14.95;;;1.73;;
41635;SDS011;27623;51.966;4.602;2022-10-10T14:53:08;10.75;;;1.65;;
41635;SDS011;27623;51.966;4.602;2022-10-10T14:55:34;14.10;;;1.65;;
41635;SDS011;27623;51.966;4.602;2022-10-10T14:58:01;14.18;;;1.92;;
41635;SDS011;27623;51.966;4.602;2022-10-10T15:00:27;7.70;;;1.23;;
41635;SDS011;27623;51.966;4.602;2022-10-10T15:02:52;9.23;;;1.92;;
41635;SDS011;27623;51.966;4.602;2022-10-10T15:05:18;8.80;;;1.38;;
41635;SDS011;27623;51.966;4.602;2022-10-10T15:07:46;12.65;;;1.20;;
41635;SDS011;27623;51.966;4.602;2022-10-10T15:10:14;7.90;;;1.75;;
41635;SDS011;27623;51.966;4.602;2022-10-10T15:12:40;24.42;;;1.33;;
41635;SDS011;27623;51.966;4.602;2022-10-10T15:15:09;9.35;;;1.75;;
41635;SDS011;27623;51.966;4.602;2022-10-10T15:17:36;10.10;;;1.30;;
41635;SDS011;27623;51.966;4.602;2022-10-10T15:20:03;11.15;;;1.90;;
41635;SDS011;27623;51.966;4.602;2022-10-10T15:22:32;7.95;;;1.30;;
41635;SDS011;27623;51.966;4.602;2022-10-10T15:24:58;7.22;;;1.40;;
41635;SDS011;27623;51.966;4.602;2022-10-10T15:27:24;11.05;;;1.40;;
41635;SDS011;27623;51.966;4.602;2022-10-10T15:29:52;11.77;;;1.77;;
41635;SDS011;27623;51.966;4.602;2022-10-10T15:32:18;10.57;;;2.05;;
41635;SDS011;27623;51.966;4.602;2022-10-10T15:34:46;13.35;;;1.40;;
41635;SDS011;27623;51.966;4.602;2022-10-10T15:37:13;11.05;;;1.48;;
41635;SDS011;27623;51.966;4.602;2022-10-10T15:39:39;7.25;;;1.10;;
41635;SDS011;27623;51.966;4.602;2022-10-10T15:42:05;14.35;;;1.65;;
41635;SDS011;27623;51.966;4.602;2022-10-10T15:44:30;8.52;;;1.17;;
41635;SDS011;27623;51.966;4.602;2022-10-10T15:46:58;10.63;;;1.40;;
41635;SDS011;27623;51.966;4.602;2022-10-10T15:49:24;5.93;;;1.10;;
41635;SDS011;27623;51.966;4.602;2022-10-10T15:51:49;12.93;;;1.50;;
41635;SDS011;27623;51.966;4.602;2022-10-10T15:54:14;12.60;;;1.23;;
41635;SDS011;27623;51.966;4.602;2022-10-10T15:56:40;6.57;;;1.65;;
41635;SDS011;27623;51.966;4.602;2022-10-10T15:59:06;8.00;;;1.30;;
41635;SDS011;27623;51.966;4.602;2022-10-10T16:01:33;17.48;;;1.95;;
41635;SDS011;27623;51.966;4.602;2022-10-10T16:04:00;12.98;;;1.45;;
41635;SDS011;27623;51.966;4.602;2022-10-10T16:06:26;10.77;;;1.20;;
41635;SDS011;27623;51.966;4.602;2022-10-10T16:08:52;11.68;;;1.70;;
41635;SDS011;27623;51.966;4.602;2022-10-10T16:11:19;22.08;;;1.77;;
41635;SDS011;27623;51.966;4.602;2022-10-10T16:13:46;9.25;;;1.33;;
41635;SDS011;27623;51.966;4.602;2022-10-10T16:16:13;3.60;;;0.90;;
41635;SDS011;27623;51.966;4.602;2022-10-10T16:18:40;8.70;;;1.08;;
41635;SDS011;27623;51.966;4.602;2022-10-10T16:21:07;8.70;;;1.00;;
41635;SDS011;27623;51.966;4.602;2022-10-10T16:23:34;12.43;;;1.30;;
41635;SDS011;27623;51.966;4.602;2022-10-10T16:28:27;8.38;;;1.33;;
41635;SDS011;27623;51.966;4.602;2022-10-10T16:30:52;10.18;;;1.98;;
41635;SDS011;27623;51.966;4.602;2022-10-10T16:33:18;12.52;;;1.60;;
41635;SDS011;27623;51.966;4.602;2022-10-10T16:35:43;12.55;;;1.23;;
41635;SDS011;27623;51.966;4.602;2022-10-10T16:38:09;9.65;;;1.38;;
41635;SDS011;27623;51.966;4.602;2022-10-10T16:40:34;7.95;;;1.20;;
41635;SDS011;27623;51.966;4.602;2022-10-10T16:43:00;9.57;;;1.13;;
41635;SDS011;27623;51.966;4.602;2022-10-10T16:45:26;7.50;;;1.35;;
41635;SDS011;27623;51.966;4.602;2022-10-10T16:47:52;9.73;;;1.23;;
41635;SDS011;27623;51.966;4.602;2022-10-10T16:50:17;8.23;;;2.05;;
41635;SDS011;27623;51.966;4.602;2022-10-10T16:52:46;14.05;;;1.92;;
41635;SDS011;27623;51.966;4.602;2022-10-10T16:55:11;10.50;;;1.52;;